sensor_id;sensor_type;location;lat;lon;timestamp;P1;durP1;ratioP1;P2;durP2;ratioP2
1682;SDS011;13252;53.596;10.060;2023-09-07T00:00:16;7.13;;;6.40;;
1682;SDS011;13252;53.596;10.060;2023-09-07T00:02:44;6.23;;;5.63;;
1682;SDS011;13252;53.596;10.060;2023-09-07T00:05:12;6.83;;;5.30;;
1682;SDS011;13252;53.596;10.060;2023-09-07T00:07:40;6.50;;;5.90;;
1682;SDS011;13252;53.596;10.060;2023-09-07T00:10:08;9.07;;;6.27;;
1682;SDS011;13252;53.596;10.060;2023-09-07T00:12:36;6.33;;;5.70;;
1682;SDS011;13252;53.596;10.060;2023-09-07T00:15:07;7.67;;;5.77;;
1682;SDS011;13252;53.596;10.060;2023-09-07T00:17:36;8.03;;;7.17;;
1682;SDS011;13252;53.596;10.060;2023-09-07T00:20:04;9.17;;;6.77;;
1682;SDS011;13252;53.596;10.060;2023-09-07T00:22:37;7.83;;;6.80;;
1682;SDS011;13252;53.596;10.060;2023-09-07T00:25:05;7.37;;;6.57;;
1682;SDS011;13252;53.596;10.060;2023-09-07T00:27:33;10.00;;;6.60;;
1682;SDS011;13252;53.596;10.060;2023-09-07T00:30:01;7.30;;;6.20;;
1682;SDS011;13252;53.596;10.060;2023-09-07T00:32:35;6.83;;;5.77;;
1682;SDS011;13252;53.596;10.060;2023-09-07T00:35:04;7.13;;;6.00;;
1682;SDS011;13252;53.596;10.060;2023-09-07T00:37:33;8.07;;;5.90;;
1682;SDS011;13252;53.596;10.060;2023-09-07T00:40:00;14.37;;;7.10;;
1682;SDS011;13252;53.596;10.060;2023-09-07T00:42:30;6.50;;;5.90;;
1682;SDS011;13252;53.596;10.060;2023-09-07T00:44:57;8.50;;;5.40;;
1682;SDS011;13252;53.596;10.060;2023-09-07T00:47:25;7.20;;;5.40;;
1682;SDS011;13252;53.596;10.060;2023-09-07T00:49:54;8.10;;;7.30;;
1682;SDS011;13252;53.596;10.060;2023-09-07T00:52:22;6.47;;;5.37;;
1682;SDS011;13252;53.596;10.060;2023-09-07T00:54:50;7.80;;;6.63;;
1682;SDS011;13252;53.596;10.060;2023-09-07T00:57:18;10.23;;;6.23;;
1682;SDS011;13252;53.596;10.060;2023-09-07T00:59:45;12.33;;;5.90;;
1682;SDS011;13252;53.596;10.060;2023-09-07T01:02:13;9.90;;;6.97;;
1682;SDS011;13252;53.596;10.060;2023-09-07T01:04:42;16.73;;;7.60;;
1682;SDS011;13252;53.596;10.060;2023-09-07T01:07:13;7.90;;;7.20;;
1682;SDS011;13252;53.596;10.060;2023-09-07T01:09:44;8.33;;;7.53;;
1682;SDS011;13252;53.596;10.060;2023-09-07T01:12:15;7.00;;;6.40;;
1682;SDS011;13252;53.596;10.060;2023-09-07T01:14:44;8.37;;;7.13;;
1682;SDS011;13252;53.596;10.060;2023-09-07T01:17:12;8.03;;;6.10;;
1682;SDS011;13252;53.596;10.060;2023-09-07T01:19:41;10.03;;;6.20;;
1682;SDS011;13252;53.596;10.060;2023-09-07T01:22:11;7.23;;;5.70;;
1682;SDS011;13252;53.596;10.060;2023-09-07T01:24:39;7.90;;;5.63;;
1682;SDS011;13252;53.596;10.060;2023-09-07T01:27:07;7.83;;;5.93;;
1682;SDS011;13252;53.596;10.060;2023-09-07T01:29:35;7.00;;;6.40;;
1682;SDS011;13252;53.596;10.060;2023-09-07T01:32:04;11.83;;;6.50;;
1682;SDS011;13252;53.596;10.060;2023-09-07T01:34:32;7.17;;;6.47;;
1682;SDS011;13252;53.596;10.060;2023-09-07T01:37:00;7.43;;;6.73;;
1682;SDS011;13252;53.596;10.060;2023-09-07T01:39:29;6.90;;;6.20;;
1682;SDS011;13252;53.596;10.060;2023-09-07T01:41:57;9.40;;;7.70;;
1682;SDS011;13252;53.596;10.060;2023-09-07T01:44:25;7.40;;;6.60;;
1682;SDS011;13252;53.596;10.060;2023-09-07T01:46:53;6.70;;;6.00;;
1682;SDS011;13252;53.596;10.060;2023-09-07T01:49:21;11.03;;;5.97;;
1682;SDS011;13252;53.596;10.060;2023-09-07T01:51:50;7.60;;;6.93;;
1682;SDS011;13252;53.596;10.060;2023-09-07T01:54:20;6.63;;;6.03;;
1682;SDS011;13252;53.596;10.060;2023-09-07T01:56:50;6.67;;;6.07;;
1682;SDS011;13252;53.596;10.060;2023-09-07T01:59:18;9.83;;;6.30;;
1682;SDS011;13252;53.596;10.060;2023-09-07T02:01:45;9.53;;;6.80;;
1682;SDS011;13252;53.596;10.060;2023-09-07T02:04:13;13.53;;;7.47;;
1682;SDS011;13252;53.596;10.060;2023-09-07T02:06:41;7.50;;;6.80;;
1682;SDS011;13252;53.596;10.060;2023-09-07T02:09:08;9.57;;;7.63;;
1682;SDS011;13252;53.596;10.060;2023-09-07T02:11:36;7.47;;;6.77;;
1682;SDS011;13252;53.596;10.060;2023-09-07T02:14:07;7.40;;;6.70;;
1682;SDS011;13252;53.596;10.060;2023-09-07T02:16:37;7.83;;;6.40;;
1682;SDS011;13252;53.596;10.060;2023-09-07T02:19:05;16.70;;;6.80;;
1682;SDS011;13252;53.596;10.060;2023-09-07T02:21:37;7.00;;;6.30;;
1682;SDS011;13252;53.596;10.060;2023-09-07T02:24:05;10.30;;;8.00;;
1682;SDS011;13252;53.596;10.060;2023-09-07T02:26:34;12.73;;;8.23;;
1682;SDS011;13252;53.596;10.060;2023-09-07T02:29:03;13.43;;;8.20;;
1682;SDS011;13252;53.596;10.060;2023-09-07T02:31:34;10.73;;;7.20;;
1682;SDS011;13252;53.596;10.060;2023-09-07T02:34:02;7.97;;;7.27;;
1682;SDS011;13252;53.596;10.060;2023-09-07T02:36:31;9.83;;;6.87;;
1682;SDS011;13252;53.596;10.060;2023-09-07T02:38:59;7.90;;;7.10;;
1682;SDS011;13252;53.596;10.060;2023-09-07T02:41:28;9.73;;;7.87;;
1682;SDS011;13252;53.596;10.060;2023-09-07T02:43:56;11.13;;;7.03;;
1682;SDS011;13252;53.596;10.060;2023-09-07T02:46:24;8.30;;;7.50;;
1682;SDS011;13252;53.596;10.060;2023-09-07T02:48:53;10.10;;;7.90;;
1682;SDS011;13252;53.596;10.060;2023-09-07T02:51:24;8.60;;;7.87;;
1682;SDS011;13252;53.596;10.060;2023-09-07T02:53:56;8.73;;;7.80;;
1682;SDS011;13252;53.596;10.060;2023-09-07T02:56:24;12.20;;;7.77;;
1682;SDS011;13252;53.596;10.060;2023-09-07T02:58:52;8.17;;;7.20;;
1682;SDS011;13252;53.596;10.060;2023-09-07T03:01:20;9.20;;;8.20;;
1682;SDS011;13252;53.596;10.060;2023-09-07T03:03:49;8.53;;;7.73;;
1682;SDS011;13252;53.596;10.060;2023-09-07T03:06:20;9.87;;;7.90;;
1682;SDS011;13252;53.596;10.060;2023-09-07T03:08:51;9.70;;;7.53;;
1682;SDS011;13252;53.596;10.060;2023-09-07T03:11:19;7.87;;;7.07;;
1682;SDS011;13252;53.596;10.060;2023-09-07T03:13:49;8.80;;;7.73;;
1682;SDS011;13252;53.596;10.060;2023-09-07T03:16:17;9.60;;;7.30;;
1682;SDS011;13252;53.596;10.060;2023-09-07T03:18:44;8.50;;;7.33;;
1682;SDS011;13252;53.596;10.060;2023-09-07T03:21:12;11.20;;;8.60;;
1682;SDS011;13252;53.596;10.060;2023-09-07T03:23:43;9.37;;;8.00;;
1682;SDS011;13252;53.596;10.060;2023-09-07T03:26:13;8.80;;;7.90;;
1682;SDS011;13252;53.596;10.060;2023-09-07T03:28:41;9.87;;;8.40;;
1682;SDS011;13252;53.596;10.060;2023-09-07T03:31:09;8.60;;;7.80;;
1682;SDS011;13252;53.596;10.060;2023-09-07T03:33:37;8.27;;;7.57;;
1682;SDS011;13252;53.596;10.060;2023-09-07T03:36:05;7.57;;;6.87;;
1682;SDS011;13252;53.596;10.060;2023-09-07T03:38:32;8.73;;;7.83;;
1682;SDS011;13252;53.596;10.060;2023-09-07T03:41:02;9.40;;;7.80;;
1682;SDS011;13252;53.596;10.060;2023-09-07T03:43:32;9.60;;;8.53;;
1682;SDS011;13252;53.596;10.060;2023-09-07T03:46:00;10.40;;;8.30;;
1682;SDS011;13252;53.596;10.060;2023-09-07T03:48:28;11.10;;;9.17;;
1682;SDS011;13252;53.596;10.060;2023-09-07T03:50:56;14.87;;;8.60;;
1682;SDS011;13252;53.596;10.060;2023-09-07T03:53:24;10.00;;;8.90;;
1682;SDS011;13252;53.596;10.060;2023-09-07T03:55:52;9.37;;;8.37;;
1682;SDS011;13252;53.596;10.060;2023-09-07T03:58:21;9.00;;;8.10;;
1682;SDS011;13252;53.596;10.060;2023-09-07T04:00:49;9.83;;;8.30;;
1682;SDS011;13252;53.596;10.060;2023-09-07T04:03:17;13.20;;;9.03;;
1682;SDS011;13252;53.596;10.060;2023-09-07T04:05:44;10.53;;;8.53;;
1682;SDS011;13252;53.596;10.060;2023-09-07T04:08:12;10.20;;;9.17;;
1682;SDS011;13252;53.596;10.060;2023-09-07T04:10:40;9.80;;;8.90;;
1682;SDS011;13252;53.596;10.060;2023-09-07T04:13:07;9.13;;;7.80;;
1682;SDS011;13252;53.596;10.060;2023-09-07T04:15:42;11.70;;;9.03;;
1682;SDS011;13252;53.596;10.060;2023-09-07T04:18:11;14.23;;;9.23;;
1682;SDS011;13252;53.596;10.060;2023-09-07T04:20:41;10.93;;;9.30;;
1682;SDS011;13252;53.596;10.060;2023-09-07T04:23:11;10.07;;;8.40;;
1682;SDS011;13252;53.596;10.060;2023-09-07T04:25:38;10.90;;;9.57;;
1682;SDS011;13252;53.596;10.060;2023-09-07T04:28:07;11.37;;;10.20;;
1682;SDS011;13252;53.596;10.060;2023-09-07T04:30:37;12.43;;;10.53;;
1682;SDS011;13252;53.596;10.060;2023-09-07T04:33:06;11.70;;;10.50;;
1682;SDS011;13252;53.596;10.060;2023-09-07T04:35:36;10.50;;;9.27;;
1682;SDS011;13252;53.596;10.060;2023-09-07T04:38:05;11.77;;;10.67;;
1682;SDS011;13252;53.596;10.060;2023-09-07T04:40:33;9.33;;;8.53;;
1682;SDS011;13252;53.596;10.060;2023-09-07T04:43:00;14.87;;;12.40;;
1682;SDS011;13252;53.596;10.060;2023-09-07T04:45:28;12.17;;;10.97;;
1682;SDS011;13252;53.596;10.060;2023-09-07T04:47:56;13.87;;;10.90;;
1682;SDS011;13252;53.596;10.060;2023-09-07T04:50:25;10.90;;;9.80;;
1682;SDS011;13252;53.596;10.060;2023-09-07T04:52:53;11.70;;;10.60;;
1682;SDS011;13252;53.596;10.060;2023-09-07T04:55:21;12.03;;;10.93;;
1682;SDS011;13252;53.596;10.060;2023-09-07T04:57:49;14.83;;;11.63;;
1682;SDS011;13252;53.596;10.060;2023-09-07T05:00:17;11.90;;;10.70;;
1682;SDS011;13252;53.596;10.060;2023-09-07T05:02:46;12.63;;;11.57;;
1682;SDS011;13252;53.596;10.060;2023-09-07T05:05:14;13.43;;;11.40;;
1682;SDS011;13252;53.596;10.060;2023-09-07T05:07:43;17.37;;;12.23;;
1682;SDS011;13252;53.596;10.060;2023-09-07T05:10:11;14.27;;;12.37;;
1682;SDS011;13252;53.596;10.060;2023-09-07T05:12:40;20.23;;;13.60;;
1682;SDS011;13252;53.596;10.060;2023-09-07T05:15:08;14.00;;;12.20;;
1682;SDS011;13252;53.596;10.060;2023-09-07T05:17:36;14.07;;;12.07;;
1682;SDS011;13252;53.596;10.060;2023-09-07T05:20:05;13.90;;;12.00;;
1682;SDS011;13252;53.596;10.060;2023-09-07T05:22:35;13.03;;;10.37;;
1682;SDS011;13252;53.596;10.060;2023-09-07T05:25:07;12.50;;;11.13;;
1682;SDS011;13252;53.596;10.060;2023-09-07T05:27:36;13.23;;;11.50;;
1682;SDS011;13252;53.596;10.060;2023-09-07T05:30:04;16.60;;;11.60;;
1682;SDS011;13252;53.596;10.060;2023-09-07T05:32:35;22.73;;;12.77;;
1682;SDS011;13252;53.596;10.060;2023-09-07T05:35:03;14.00;;;12.27;;
1682;SDS011;13252;53.596;10.060;2023-09-07T05:37:32;16.53;;;12.27;;
1682;SDS011;13252;53.596;10.060;2023-09-07T05:40:00;12.00;;;10.90;;
1682;SDS011;13252;53.596;10.060;2023-09-07T05:42:31;12.07;;;10.83;;
1682;SDS011;13252;53.596;10.060;2023-09-07T05:44:58;11.77;;;10.73;;
1682;SDS011;13252;53.596;10.060;2023-09-07T05:47:27;11.60;;;10.50;;
1682;SDS011;13252;53.596;10.060;2023-09-07T05:49:55;12.63;;;11.43;;
1682;SDS011;13252;53.596;10.060;2023-09-07T05:52:23;11.07;;;10.03;;
1682;SDS011;13252;53.596;10.060;2023-09-07T05:54:51;12.73;;;11.10;;
1682;SDS011;13252;53.596;10.060;2023-09-07T05:57:18;12.33;;;11.10;;
1682;SDS011;13252;53.596;10.060;2023-09-07T05:59:48;13.60;;;9.70;;
1682;SDS011;13252;53.596;10.060;2023-09-07T06:02:15;10.40;;;9.40;;
1682;SDS011;13252;53.596;10.060;2023-09-07T06:04:43;10.93;;;9.83;;
1682;SDS011;13252;53.596;10.060;2023-09-07T06:07:11;10.93;;;9.93;;
1682;SDS011;13252;53.596;10.060;2023-09-07T06:09:39;11.60;;;10.40;;
1682;SDS011;13252;53.596;10.060;2023-09-07T06:12:07;10.80;;;9.90;;
1682;SDS011;13252;53.596;10.060;2023-09-07T06:14:35;9.50;;;8.60;;
1682;SDS011;13252;53.596;10.060;2023-09-07T06:17:04;11.30;;;10.33;;
1682;SDS011;13252;53.596;10.060;2023-09-07T06:19:32;10.30;;;9.20;;
1682;SDS011;13252;53.596;10.060;2023-09-07T06:22:01;12.53;;;8.80;;
1682;SDS011;13252;53.596;10.060;2023-09-07T06:24:29;9.40;;;8.30;;
1682;SDS011;13252;53.596;10.060;2023-09-07T06:26:57;14.57;;;10.47;;
1682;SDS011;13252;53.596;10.060;2023-09-07T06:29:25;11.83;;;8.87;;
1682;SDS011;13252;53.596;10.060;2023-09-07T06:31:55;11.60;;;9.73;;
1682;SDS011;13252;53.596;10.060;2023-09-07T06:34:26;11.00;;;9.03;;
1682;SDS011;13252;53.596;10.060;2023-09-07T06:36:54;10.53;;;9.43;;
1682;SDS011;13252;53.596;10.060;2023-09-07T06:39:22;11.83;;;8.80;;
1682;SDS011;13252;53.596;10.060;2023-09-07T06:41:50;14.57;;;8.57;;
1682;SDS011;13252;53.596;10.060;2023-09-07T06:44:20;17.90;;;8.70;;
1682;SDS011;13252;53.596;10.060;2023-09-07T06:46:49;10.10;;;9.10;;
1682;SDS011;13252;53.596;10.060;2023-09-07T06:49:17;13.40;;;9.30;;
1682;SDS011;13252;53.596;10.060;2023-09-07T06:51:46;10.23;;;7.80;;
1682;SDS011;13252;53.596;10.060;2023-09-07T06:54:14;10.97;;;8.33;;
1682;SDS011;13252;53.596;10.060;2023-09-07T06:56:42;8.20;;;7.40;;
1682;SDS011;13252;53.596;10.060;2023-09-07T06:59:10;8.13;;;7.43;;
1682;SDS011;13252;53.596;10.060;2023-09-07T07:01:38;8.33;;;7.47;;
1682;SDS011;13252;53.596;10.060;2023-09-07T07:04:06;12.10;;;8.33;;
1682;SDS011;13252;53.596;10.060;2023-09-07T07:06:34;12.60;;;7.80;;
1682;SDS011;13252;53.596;10.060;2023-09-07T07:09:03;9.63;;;8.40;;
1682;SDS011;13252;53.596;10.060;2023-09-07T07:11:32;9.87;;;7.60;;
1682;SDS011;13252;53.596;10.060;2023-09-07T07:14:00;15.87;;;7.50;;
1682;SDS011;13252;53.596;10.060;2023-09-07T07:16:28;7.33;;;6.40;;
1682;SDS011;13252;53.596;10.060;2023-09-07T07:18:56;12.83;;;7.40;;
1682;SDS011;13252;53.596;10.060;2023-09-07T07:21:23;11.83;;;7.73;;
1682;SDS011;13252;53.596;10.060;2023-09-07T07:23:51;9.00;;;7.23;;
1682;SDS011;13252;53.596;10.060;2023-09-07T07:26:20;8.00;;;6.50;;
1682;SDS011;13252;53.596;10.060;2023-09-07T07:28:49;8.27;;;7.27;;
1682;SDS011;13252;53.596;10.060;2023-09-07T07:31:17;7.93;;;7.13;;
1682;SDS011;13252;53.596;10.060;2023-09-07T07:33:45;9.43;;;7.57;;
1682;SDS011;13252;53.596;10.060;2023-09-07T07:36:14;7.10;;;6.40;;
1682;SDS011;13252;53.596;10.060;2023-09-07T07:38:42;8.60;;;6.90;;
1682;SDS011;13252;53.596;10.060;2023-09-07T07:41:10;7.87;;;7.10;;
1682;SDS011;13252;53.596;10.060;2023-09-07T07:43:39;7.93;;;7.13;;
1682;SDS011;13252;53.596;10.060;2023-09-07T07:46:07;9.60;;;6.43;;
1682;SDS011;13252;53.596;10.060;2023-09-07T07:48:36;7.20;;;6.20;;
1682;SDS011;13252;53.596;10.060;2023-09-07T07:51:04;6.70;;;6.00;;
1682;SDS011;13252;53.596;10.060;2023-09-07T07:53:38;8.10;;;6.50;;
1682;SDS011;13252;53.596;10.060;2023-09-07T07:56:05;8.83;;;6.27;;
1682;SDS011;13252;53.596;10.060;2023-09-07T07:58:33;7.43;;;6.07;;
1682;SDS011;13252;53.596;10.060;2023-09-07T08:01:03;7.33;;;6.03;;
1682;SDS011;13252;53.596;10.060;2023-09-07T08:03:41;7.27;;;6.57;;
1682;SDS011;13252;53.596;10.060;2023-09-07T08:06:09;6.87;;;6.27;;
1682;SDS011;13252;53.596;10.060;2023-09-07T08:08:38;6.10;;;5.50;;
1682;SDS011;13252;53.596;10.060;2023-09-07T08:11:07;6.90;;;6.27;;
1682;SDS011;13252;53.596;10.060;2023-09-07T08:13:37;6.53;;;5.50;;
1682;SDS011;13252;53.596;10.060;2023-09-07T08:16:08;9.03;;;6.67;;
1682;SDS011;13252;53.596;10.060;2023-09-07T08:18:40;7.23;;;6.20;;
1682;SDS011;13252;53.596;10.060;2023-09-07T08:21:09;6.63;;;5.93;;
1682;SDS011;13252;53.596;10.060;2023-09-07T08:23:36;10.53;;;8.30;;
1682;SDS011;13252;53.596;10.060;2023-09-07T08:26:05;8.77;;;6.50;;
1682;SDS011;13252;53.596;10.060;2023-09-07T08:28:32;7.77;;;5.70;;
1682;SDS011;13252;53.596;10.060;2023-09-07T08:31:00;9.33;;;6.00;;
1682;SDS011;13252;53.596;10.060;2023-09-07T08:33:32;12.40;;;5.93;;
1682;SDS011;13252;53.596;10.060;2023-09-07T08:36:07;9.77;;;6.00;;
1682;SDS011;13252;53.596;10.060;2023-09-07T08:38:35;7.47;;;5.90;;
1682;SDS011;13252;53.596;10.060;2023-09-07T08:41:04;10.93;;;6.33;;
1682;SDS011;13252;53.596;10.060;2023-09-07T08:43:33;9.60;;;6.40;;
1682;SDS011;13252;53.596;10.060;2023-09-07T08:46:04;6.13;;;5.53;;
1682;SDS011;13252;53.596;10.060;2023-09-07T08:48:43;8.07;;;5.93;;
1682;SDS011;13252;53.596;10.060;2023-09-07T08:51:12;6.43;;;5.70;;
1682;SDS011;13252;53.596;10.060;2023-09-07T08:53:42;9.27;;;6.00;;
1682;SDS011;13252;53.596;10.060;2023-09-07T08:56:13;7.73;;;6.80;;
1682;SDS011;13252;53.596;10.060;2023-09-07T08:58:41;9.43;;;5.70;;
1682;SDS011;13252;53.596;10.060;2023-09-07T09:01:11;11.63;;;6.10;;
1682;SDS011;13252;53.596;10.060;2023-09-07T09:03:40;8.80;;;5.57;;
1682;SDS011;13252;53.596;10.060;2023-09-07T09:06:11;7.70;;;6.03;;
1682;SDS011;13252;53.596;10.060;2023-09-07T09:08:42;6.93;;;4.80;;
1682;SDS011;13252;53.596;10.060;2023-09-07T09:11:10;6.63;;;4.83;;
1682;SDS011;13252;53.596;10.060;2023-09-07T09:13:39;10.10;;;6.03;;
1682;SDS011;13252;53.596;10.060;2023-09-07T09:16:07;7.80;;;5.80;;
1682;SDS011;13252;53.596;10.060;2023-09-07T09:18:35;10.80;;;5.90;;
1682;SDS011;13252;53.596;10.060;2023-09-07T09:21:05;7.13;;;5.70;;
1682;SDS011;13252;53.596;10.060;2023-09-07T09:23:34;6.60;;;5.47;;
1682;SDS011;13252;53.596;10.060;2023-09-07T09:26:02;11.00;;;6.50;;
1682;SDS011;13252;53.596;10.060;2023-09-07T09:28:31;9.60;;;5.37;;
1682;SDS011;13252;53.596;10.060;2023-09-07T09:31:01;22.60;;;8.57;;
1682;SDS011;13252;53.596;10.060;2023-09-07T09:33:30;7.47;;;4.67;;
1682;SDS011;13252;53.596;10.060;2023-09-07T09:35:58;6.10;;;5.50;;
1682;SDS011;13252;53.596;10.060;2023-09-07T09:38:27;7.00;;;5.70;;
1682;SDS011;13252;53.596;10.060;2023-09-07T09:40:56;5.47;;;4.97;;
1682;SDS011;13252;53.596;10.060;2023-09-07T09:43:23;8.50;;;4.53;;
1682;SDS011;13252;53.596;10.060;2023-09-07T09:45:52;5.80;;;5.20;;
1682;SDS011;13252;53.596;10.060;2023-09-07T09:48:20;7.57;;;5.20;;
1682;SDS011;13252;53.596;10.060;2023-09-07T09:50:49;7.47;;;4.80;;
1682;SDS011;13252;53.596;10.060;2023-09-07T09:53:18;10.23;;;5.13;;
1682;SDS011;13252;53.596;10.060;2023-09-07T09:55:51;8.03;;;5.30;;
1682;SDS011;13252;53.596;10.060;2023-09-07T09:58:20;10.60;;;5.40;;
1682;SDS011;13252;53.596;10.060;2023-09-07T10:00:49;7.53;;;4.97;;
1682;SDS011;13252;53.596;10.060;2023-09-07T10:03:18;10.70;;;5.87;;
1682;SDS011;13252;53.596;10.060;2023-09-07T10:05:50;12.10;;;5.63;;
1682;SDS011;13252;53.596;10.060;2023-09-07T10:08:18;11.60;;;5.63;;
1682;SDS011;13252;53.596;10.060;2023-09-07T10:10:52;9.03;;;5.20;;
1682;SDS011;13252;53.596;10.060;2023-09-07T10:13:31;7.50;;;5.20;;
1682;SDS011;13252;53.596;10.060;2023-09-07T10:16:00;7.37;;;5.00;;
1682;SDS011;13252;53.596;10.060;2023-09-07T10:18:34;6.70;;;4.30;;
1682;SDS011;13252;53.596;10.060;2023-09-07T10:21:03;10.10;;;4.63;;
1682;SDS011;13252;53.596;10.060;2023-09-07T10:23:37;7.70;;;4.10;;
1682;SDS011;13252;53.596;10.060;2023-09-07T10:26:10;5.57;;;4.10;;
1682;SDS011;13252;53.596;10.060;2023-09-07T10:28:39;8.23;;;4.20;;
1682;SDS011;13252;53.596;10.060;2023-09-07T10:31:09;9.03;;;4.20;;
1682;SDS011;13252;53.596;10.060;2023-09-07T10:33:41;8.30;;;4.57;;
1682;SDS011;13252;53.596;10.060;2023-09-07T10:36:09;6.10;;;4.30;;
1682;SDS011;13252;53.596;10.060;2023-09-07T10:38:47;6.10;;;4.13;;
1682;SDS011;13252;53.596;10.060;2023-09-07T10:41:17;5.50;;;4.00;;
1682;SDS011;13252;53.596;10.060;2023-09-07T10:43:46;5.57;;;4.00;;
1682;SDS011;13252;53.596;10.060;2023-09-07T10:46:15;7.27;;;4.30;;
1682;SDS011;13252;53.596;10.060;2023-09-07T10:48:48;18.20;;;4.33;;
1682;SDS011;13252;53.596;10.060;2023-09-07T10:51:16;6.33;;;4.30;;
1682;SDS011;13252;53.596;10.060;2023-09-07T10:53:44;5.23;;;4.10;;
1682;SDS011;13252;53.596;10.060;2023-09-07T10:56:12;7.77;;;4.30;;
1682;SDS011;13252;53.596;10.060;2023-09-07T10:58:41;7.53;;;4.37;;
1682;SDS011;13252;53.596;10.060;2023-09-07T11:01:10;9.57;;;4.30;;
1682;SDS011;13252;53.596;10.060;2023-09-07T11:03:41;5.30;;;4.03;;
1682;SDS011;13252;53.596;10.060;2023-09-07T11:06:09;5.30;;;4.17;;
1682;SDS011;13252;53.596;10.060;2023-09-07T11:08:38;6.83;;;4.00;;
1682;SDS011;13252;53.596;10.060;2023-09-07T11:11:06;5.70;;;4.27;;
1682;SDS011;13252;53.596;10.060;2023-09-07T11:13:35;7.63;;;4.57;;
1682;SDS011;13252;53.596;10.060;2023-09-07T11:16:07;9.53;;;4.57;;
1682;SDS011;13252;53.596;10.060;2023-09-07T11:18:35;10.17;;;4.70;;
1682;SDS011;13252;53.596;10.060;2023-09-07T11:21:03;16.03;;;5.07;;
1682;SDS011;13252;53.596;10.060;2023-09-07T11:23:33;7.10;;;5.27;;
1682;SDS011;13252;53.596;10.060;2023-09-07T11:26:04;7.00;;;4.40;;
1682;SDS011;13252;53.596;10.060;2023-09-07T11:28:32;9.77;;;4.53;;
1682;SDS011;13252;53.596;10.060;2023-09-07T11:31:00;4.60;;;3.70;;
1682;SDS011;13252;53.596;10.060;2023-09-07T11:33:31;7.43;;;4.67;;
1682;SDS011;13252;53.596;10.060;2023-09-07T11:36:00;6.00;;;4.07;;
1682;SDS011;13252;53.596;10.060;2023-09-07T11:38:28;5.70;;;3.57;;
1682;SDS011;13252;53.596;10.060;2023-09-07T11:40:56;7.30;;;4.10;;
1682;SDS011;13252;53.596;10.060;2023-09-07T11:43:24;6.53;;;4.10;;
1682;SDS011;13252;53.596;10.060;2023-09-07T11:45:52;7.13;;;4.53;;
1682;SDS011;13252;53.596;10.060;2023-09-07T11:48:20;5.10;;;3.90;;
1682;SDS011;13252;53.596;10.060;2023-09-07T11:50:49;5.37;;;3.83;;
1682;SDS011;13252;53.596;10.060;2023-09-07T11:53:17;6.70;;;3.30;;
1682;SDS011;13252;53.596;10.060;2023-09-07T11:55:45;6.10;;;3.40;;
1682;SDS011;13252;53.596;10.060;2023-09-07T11:58:12;7.97;;;3.60;;
1682;SDS011;13252;53.596;10.060;2023-09-07T12:00:40;9.83;;;4.20;;
1682;SDS011;13252;53.596;10.060;2023-09-07T12:03:08;5.70;;;4.20;;
1682;SDS011;13252;53.596;10.060;2023-09-07T12:05:37;5.03;;;3.70;;
1682;SDS011;13252;53.596;10.060;2023-09-07T12:08:07;6.10;;;3.57;;
1682;SDS011;13252;53.596;10.060;2023-09-07T12:10:35;10.03;;;4.20;;
1682;SDS011;13252;53.596;10.060;2023-09-07T12:13:03;6.10;;;4.10;;
1682;SDS011;13252;53.596;10.060;2023-09-07T12:15:31;7.90;;;4.10;;
1682;SDS011;13252;53.596;10.060;2023-09-07T12:17:59;6.67;;;4.03;;
1682;SDS011;13252;53.596;10.060;2023-09-07T12:20:27;12.13;;;4.40;;
1682;SDS011;13252;53.596;10.060;2023-09-07T12:22:54;8.57;;;4.50;;
1682;SDS011;13252;53.596;10.060;2023-09-07T12:25:24;9.03;;;5.03;;
1682;SDS011;13252;53.596;10.060;2023-09-07T12:27:52;7.67;;;4.80;;
1682;SDS011;13252;53.596;10.060;2023-09-07T12:30:21;10.10;;;4.00;;
1682;SDS011;13252;53.596;10.060;2023-09-07T12:32:50;11.00;;;4.90;;
1682;SDS011;13252;53.596;10.060;2023-09-07T12:35:19;5.30;;;4.33;;
1682;SDS011;13252;53.596;10.060;2023-09-07T12:37:47;11.57;;;4.90;;
1682;SDS011;13252;53.596;10.060;2023-09-07T12:40:15;5.63;;;3.50;;
1682;SDS011;13252;53.596;10.060;2023-09-07T12:42:44;6.87;;;4.00;;
1682;SDS011;13252;53.596;10.060;2023-09-07T12:45:13;6.37;;;3.93;;
1682;SDS011;13252;53.596;10.060;2023-09-07T12:47:44;5.03;;;3.40;;
1682;SDS011;13252;53.596;10.060;2023-09-07T12:50:12;10.43;;;3.70;;
1682;SDS011;13252;53.596;10.060;2023-09-07T12:52:40;6.70;;;4.27;;
1682;SDS011;13252;53.596;10.060;2023-09-07T12:55:08;10.93;;;4.33;;
1682;SDS011;13252;53.596;10.060;2023-09-07T12:57:36;5.00;;;3.23;;
1682;SDS011;13252;53.596;10.060;2023-09-07T13:00:06;5.07;;;3.93;;
1682;SDS011;13252;53.596;10.060;2023-09-07T13:02:34;6.53;;;4.77;;
1682;SDS011;13252;53.596;10.060;2023-09-07T13:05:03;4.90;;;3.50;;
1682;SDS011;13252;53.596;10.060;2023-09-07T13:07:32;5.00;;;3.27;;
1682;SDS011;13252;53.596;10.060;2023-09-07T13:10:01;7.03;;;3.40;;
1682;SDS011;13252;53.596;10.060;2023-09-07T13:12:30;7.03;;;4.10;;
1682;SDS011;13252;53.596;10.060;2023-09-07T13:14:58;6.23;;;4.07;;
1682;SDS011;13252;53.596;10.060;2023-09-07T13:17:27;6.70;;;3.60;;
1682;SDS011;13252;53.596;10.060;2023-09-07T13:19:55;6.27;;;4.27;;
1682;SDS011;13252;53.596;10.060;2023-09-07T13:22:23;4.40;;;3.10;;
1682;SDS011;13252;53.596;10.060;2023-09-07T13:24:50;9.80;;;4.40;;
1682;SDS011;13252;53.596;10.060;2023-09-07T13:27:18;15.03;;;4.70;;
1682;SDS011;13252;53.596;10.060;2023-09-07T13:29:46;5.60;;;3.20;;
1682;SDS011;13252;53.596;10.060;2023-09-07T13:32:13;6.07;;;4.57;;
1682;SDS011;13252;53.596;10.060;2023-09-07T13:34:42;8.93;;;3.90;;
1682;SDS011;13252;53.596;10.060;2023-09-07T13:37:10;6.13;;;3.70;;
1682;SDS011;13252;53.596;10.060;2023-09-07T13:39:38;4.77;;;3.60;;
1682;SDS011;13252;53.596;10.060;2023-09-07T13:42:06;9.70;;;4.00;;
1682;SDS011;13252;53.596;10.060;2023-09-07T13:44:34;8.30;;;3.50;;
1682;SDS011;13252;53.596;10.060;2023-09-07T13:47:03;7.00;;;3.73;;
1682;SDS011;13252;53.596;10.060;2023-09-07T13:49:31;13.53;;;4.30;;
1682;SDS011;13252;53.596;10.060;2023-09-07T13:51:59;5.73;;;3.93;;
1682;SDS011;13252;53.596;10.060;2023-09-07T13:54:27;8.33;;;4.10;;
1682;SDS011;13252;53.596;10.060;2023-09-07T13:56:55;8.50;;;4.37;;
1682;SDS011;13252;53.596;10.060;2023-09-07T13:59:24;8.10;;;3.93;;
1682;SDS011;13252;53.596;10.060;2023-09-07T14:01:55;6.60;;;4.10;;
1682;SDS011;13252;53.596;10.060;2023-09-07T14:04:24;5.20;;;3.70;;
1682;SDS011;13252;53.596;10.060;2023-09-07T14:06:51;5.83;;;4.40;;
1682;SDS011;13252;53.596;10.060;2023-09-07T14:09:20;10.57;;;3.90;;
1682;SDS011;13252;53.596;10.060;2023-09-07T14:11:49;7.27;;;4.00;;
1682;SDS011;13252;53.596;10.060;2023-09-07T14:14:17;11.03;;;3.83;;
1682;SDS011;13252;53.596;10.060;2023-09-07T14:16:45;10.40;;;3.70;;
1682;SDS011;13252;53.596;10.060;2023-09-07T14:19:13;4.93;;;3.40;;
1682;SDS011;13252;53.596;10.060;2023-09-07T14:21:41;7.33;;;4.00;;
1682;SDS011;13252;53.596;10.060;2023-09-07T14:24:08;6.70;;;3.53;;
1682;SDS011;13252;53.596;10.060;2023-09-07T14:26:37;4.27;;;3.57;;
1682;SDS011;13252;53.596;10.060;2023-09-07T14:29:05;6.00;;;3.70;;
1682;SDS011;13252;53.596;10.060;2023-09-07T14:31:33;8.13;;;3.87;;
1682;SDS011;13252;53.596;10.060;2023-09-07T14:34:00;10.20;;;3.70;;
1682;SDS011;13252;53.596;10.060;2023-09-07T14:36:28;6.73;;;3.67;;
1682;SDS011;13252;53.596;10.060;2023-09-07T14:38:56;6.10;;;4.70;;
1682;SDS011;13252;53.596;10.060;2023-09-07T14:41:23;10.37;;;4.10;;
1682;SDS011;13252;53.596;10.060;2023-09-07T14:43:52;6.27;;;3.90;;
1682;SDS011;13252;53.596;10.060;2023-09-07T14:46:20;6.93;;;3.70;;
1682;SDS011;13252;53.596;10.060;2023-09-07T14:48:51;4.57;;;3.60;;